Time;durP1;ratioP1;P1;durP2;ratioP2;P2;SDS_P1;SDS_P2;PMS_P1;PMS_P2;Temp;Humidity;BMP_temperature;BMP_pressure;BME280_temperature;BME280_humidity;BME280_pressure;Samples;Min_cycle;Max_cycle;Signal;HPM_P1;HPM_P2
2022/08/23 00:01:39;;;;;;;0.43;0.43;;;18.90;99.90;;;;;;5113551;28;20256;-67
2022/08/23 00:04:31;;;;;;;0.40;0.40;;;18.90;99.90;;;;;;5114145;28;20581;-69
2022/08/23 00:07:22;;;;;;;0.40;0.40;;;18.80;99.90;;;;;;5114025;28;20196;-68
2022/08/23 00:10:13;;;;;;;0.40;0.40;;;18.70;99.90;;;;;;5113617;28;20203;-68
2022/08/23 00:13:01;;;;;;;0.40;0.40;;;18.80;99.90;;;;;;5113951;28;20202;-70
2022/08/23 00:15:49;;;;;;;0.50;0.50;;;18.70;99.90;;;;;;5115118;28;20221;-65
2022/08/23 00:18:38;;;;;;;0.50;0.50;;;18.60;99.90;;;;;;5113373;28;20203;-70
2022/08/23 00:21:28;;;;;;;0.50;0.50;;;18.60;99.90;;;;;;5114009;28;20219;-66
2022/08/23 00:24:17;;;;;;;0.40;0.40;;;18.60;99.90;;;;;;5113028;28;20195;-67
2022/08/23 00:27:08;;;;;;;0.40;0.40;;;18.60;99.90;;;;;;5113688;28;20199;-71
2022/08/23 00:29:57;;;;;;;0.40;0.40;;;18.50;99.90;;;;;;5113972;28;20613;-69
2022/08/23 00:32:46;;;;;;;0.47;0.47;;;18.40;99.90;;;;;;5112178;28;20195;-66
2022/08/23 00:35:35;;;;;;;0.47;0.47;;;18.40;99.90;;;;;;5114722;28;20577;-66
2022/08/23 00:38:24;;;;;;;0.40;0.40;;;18.40;99.90;;;;;;5113554;28;20199;-69
2022/08/23 00:41:21;;;;;;;0.40;0.40;;;18.40;99.90;;;;;;5112645;28;20278;-69
2022/08/23 00:47:40;;;;;;;0.40;0.40;;;18.50;99.90;;;;;;5113175;28;20205;-68
2022/08/23 00:50:38;;;;;;;0.40;0.40;;;18.50;99.90;;;;;;5113062;28;20298;-67
2022/08/23 00:53:30;;;;;;;0.40;0.40;;;18.50;99.90;;;;;;5113073;28;20236;-67
2022/08/23 00:56:21;;;;;;;0.40;0.40;;;18.50;99.90;;;;;;5113361;28;20578;-67
2022/08/23 00:59:09;;;;;;;0.50;0.50;;;18.60;99.90;;;;;;5112867;28;20223;-66
2022/08/23 01:01:58;;;;;;;0.50;0.50;;;18.50;99.90;;;;;;5113677;28;20223;-66
2022/08/23 01:04:53;;;;;;;0.50;0.50;;;18.50;99.90;;;;;;5112784;28;20621;-65
2022/08/23 01:07:48;;;;;;;0.40;0.40;;;18.60;99.90;;;;;;5113504;28;20558;-66
2022/08/23 01:10:41;;;;;;;0.40;0.40;;;18.60;99.90;;;;;;5113241;28;20226;-68
2022/08/23 01:13:35;;;;;;;0.40;0.40;;;18.60;99.90;;;;;;5112792;28;20613;-66
2022/08/23 01:16:28;;;;;;;0.50;0.50;;;18.50;99.90;;;;;;5112519;28;20241;-66
2022/08/23 01:19:22;;;;;;;0.50;0.50;;;18.60;99.90;;;;;;5112866;28;20202;-67
2022/08/23 01:22:17;;;;;;;0.50;0.50;;;18.60;99.90;;;;;;5112503;28;20219;-65
2022/08/23 01:25:10;;;;;;;0.40;0.40;;;18.60;99.90;;;;;;5112471;28;20257;-67
2022/08/23 01:27:59;;;;;;;0.40;0.40;;;18.50;99.90;;;;;;5112170;28;20218;-66
2022/08/23 01:30:49;;;;;;;0.50;0.50;;;18.50;99.90;;;;;;5111321;28;20699;-69
2022/08/23 01:33:38;;;;;;;0.40;0.40;;;18.40;99.90;;;;;;5111868;28;20264;-67
2022/08/23 01:36:26;;;;;;;0.50;0.50;;;18.30;99.90;;;;;;5112501;28;20206;-68
2022/08/23 01:39:14;;;;;;;0.50;0.50;;;18.30;99.90;;;;;;5113183;28;20240;-68
2022/08/23 01:42:05;;;;;;;0.45;0.45;;;19.90;99.90;;;;;;5113112;27;20642;-66
2022/08/23 01:44:54;;;;;;;0.40;0.40;;;18.10;99.90;;;;;;5108576;28;20195;-67
2022/08/23 01:47:42;;;;;;;0.40;0.40;;;18.00;99.90;;;;;;5113512;28;20227;-67
2022/08/23 01:50:31;;;;;;;0.40;0.40;;;18.00;99.90;;;;;;5111974;28;20287;-67
2022/08/23 01:53:19;;;;;;;0.50;0.50;;;17.90;99.90;;;;;;5112558;28;20203;-67
2022/08/23 01:56:08;;;;;;;0.40;0.40;;;17.90;99.90;;;;;;5112809;28;20203;-69
2022/08/23 01:58:58;;;;;;;0.60;0.60;;;18.00;99.90;;;;;;5113277;28;20620;-66
2022/08/23 02:01:47;;;;;;;0.40;0.40;;;17.90;99.90;;;;;;5111541;28;20573;-69
2022/08/23 02:04:35;;;;;;;0.40;0.40;;;18.00;99.90;;;;;;5112466;28;20569;-69
2022/08/23 02:07:26;;;;;;;0.40;0.40;;;18.00;99.90;;;;;;5113116;28;20195;-67
2022/08/23 02:10:14;;;;;;;0.40;0.40;;;18.10;99.90;;;;;;5112087;28;20232;-67
2022/08/23 02:13:02;;;;;;;0.50;0.50;;;18.10;99.90;;;;;;5112926;28;20203;-67
2022/08/23 02:15:52;;;;;;;0.40;0.40;;;18.20;99.90;;;;;;5112328;28;20203;-67
2022/08/23 02:18:40;;;;;;;0.40;0.40;;;18.10;99.90;;;;;;5112790;28;20293;-69
2022/08/23 02:21:30;;;;;;;0.47;0.47;;;18.10;99.90;;;;;;5112498;28;20243;-67
2022/08/23 02:24:21;;;;;;;0.40;0.40;;;18.10;99.90;;;;;;5110785;28;20614;-67
2022/08/23 02:27:10;;;;;;;0.40;0.40;;;18.00;99.90;;;;;;5111654;28;20207;-68
2022/08/23 02:29:58;;;;;;;0.40;0.40;;;18.00;99.90;;;;;;5111691;28;20740;-67
2022/08/23 02:32:50;;;;;;;0.50;0.50;;;17.90;99.90;;;;;;5113024;28;20206;-69
2022/08/23 02:35:39;;;;;;;0.50;0.50;;;17.90;99.90;;;;;;5111576;28;20260;-66
2022/08/23 02:38:27;;;;;;;0.40;0.40;;;17.90;99.90;;;;;;5110780;28;20200;-66
2022/08/23 02:41:16;;;;;;;0.40;0.40;;;18.00;99.90;;;;;;5112118;28;20226;-67
2022/08/23 02:44:05;;;;;;;0.40;0.40;;;18.00;99.90;;;;;;5111860;28;20203;-65
2022/08/23 02:46:53;;;;;;;0.40;0.40;;;18.00;99.90;;;;;;5112496;28;20207;-69
2022/08/23 02:49:42;;;;;;;0.50;0.50;;;17.90;99.90;;;;;;5110939;28;20690;-69
2022/08/23 02:52:30;;;;;;;0.40;0.40;;;17.80;99.90;;;;;;5112302;28;20206;-66
2022/08/23 02:55:19;;;;;;;0.40;0.40;;;17.80;99.90;;;;;;5111817;28;20679;-67
2022/08/23 02:58:07;;;;;;;0.40;0.40;;;17.80;99.90;;;;;;5112279;28;20251;-68
2022/08/23 03:00:55;;;;;;;0.40;0.40;;;17.70;99.90;;;;;;5111274;28;20226;-67
2022/08/23 03:03:44;;;;;;;0.40;0.40;;;17.70;99.90;;;;;;5111103;28;20199;-67
2022/08/23 03:06:34;;;;;;;0.40;0.40;;;17.70;99.90;;;;;;5112225;28;20191;-67
2022/08/23 03:09:22;;;;;;;0.50;0.50;;;17.60;99.90;;;;;;5111265;28;20676;-68
2022/08/23 03:12:10;;;;;;;0.40;0.40;;;17.70;99.90;;;;;;5111928;28;20218;-69
2022/08/23 03:14:58;;;;;;;0.40;0.40;;;17.70;99.90;;;;;;5111527;28;20694;-68
2022/08/23 03:17:47;;;;;;;0.40;0.40;;;17.70;99.90;;;;;;5112145;28;20199;-68
2022/08/23 03:20:35;;;;;;;0.50;0.50;;;17.60;99.90;;;;;;5111532;28;20695;-67
2022/08/23 03:23:25;;;;;;;0.40;0.40;;;17.60;99.90;;;;;;5110949;28;20199;-67
2022/08/23 03:26:15;;;;;;;0.40;0.40;;;17.60;99.90;;;;;;5112036;28;20207;-68
2022/08/23 03:29:03;;;;;;;0.90;0.90;;;17.60;99.90;;;;;;5110652;28;20199;-67
2022/08/23 03:31:52;;;;;;;0.40;0.40;;;17.60;99.90;;;;;;5110825;28;20242;-65
2022/08/23 03:34:40;;;;;;;0.40;0.40;;;17.60;99.90;;;;;;5112383;28;20274;-65
2022/08/23 03:37:29;;;;;;;0.40;0.40;;;17.60;99.90;;;;;;5115822;28;20203;-68
2022/08/23 03:40:18;;;;;;;0.40;0.40;;;17.70;99.90;;;;;;5115361;28;20195;-68
2022/08/23 03:43:06;;;;;;;0.40;0.40;;;17.60;99.90;;;;;;5115143;28;20192;-68
2022/08/23 03:45:54;;;;;;;0.50;0.50;;;17.50;99.90;;;;;;5114897;28;20208;-67
2022/08/23 03:48:42;;;;;;;0.50;0.50;;;17.50;99.90;;;;;;5115332;28;20227;-67
2022/08/23 03:51:31;;;;;;;0.40;0.40;;;17.40;99.90;;;;;;5115449;28;20260;-67
2022/08/23 03:54:20;;;;;;;0.40;0.40;;;17.40;99.90;;;;;;5114062;28;20202;-69
2022/08/23 03:57:11;;;;;;;0.40;0.40;;;17.40;99.90;;;;;;5114296;28;20278;-67
2022/08/23 03:59:59;;;;;;;0.60;0.60;;;17.40;99.90;;;;;;5115701;28;20663;-69
2022/08/23 04:02:48;;;;;;;0.40;0.40;;;17.40;99.90;;;;;;5114304;28;20210;-68
2022/08/23 04:05:36;;;;;;;0.40;0.40;;;17.40;99.90;;;;;;5115508;28;20257;-68
2022/08/23 04:08:24;;;;;;;0.40;0.40;;;17.40;99.90;;;;;;5114639;28;20199;-65
2022/08/23 04:11:20;;;;;;;0.40;0.40;;;17.40;99.90;;;;;;5114953;28;20215;-67
2022/08/23 04:14:11;;;;;;;0.40;0.40;;;17.40;99.90;;;;;;5114063;28;20199;-66
2022/08/23 04:16:59;;;;;;;0.50;0.50;;;17.30;99.90;;;;;;5115060;28;20699;-65
2022/08/23 04:19:48;;;;;;;0.40;0.40;;;17.40;99.90;;;;;;5114900;28;20272;-66
2022/08/23 04:22:36;;;;;;;0.50;0.50;;;17.30;99.90;;;;;;5114230;28;20223;-67
2022/08/23 04:25:25;;;;;;;0.40;0.40;;;17.30;99.90;;;;;;5115167;28;20207;-67
2022/08/23 04:28:22;;;;;;;0.40;0.40;;;17.30;99.90;;;;;;5113351;28;20231;-65
2022/08/23 04:31:12;;;;;;;0.40;0.40;;;17.30;99.90;;;;;;5114316;28;20219;-68
2022/08/23 04:34:00;;;;;;;0.40;0.40;;;17.40;99.90;;;;;;5114901;28;20202;-66
2022/08/23 04:36:48;;;;;;;0.40;0.40;;;17.40;99.90;;;;;;5114150;28;20192;-67
2022/08/23 04:42:48;;;;;;;0.40;0.40;;;17.40;99.90;;;;;;5113872;28;20215;-65
2022/08/23 04:45:38;;;;;;;1.23;1.13;;;17.40;99.90;;;;;;5114393;28;20521;-66
2022/08/23 04:48:28;;;;;;;0.40;0.40;;;17.40;99.90;;;;;;5113195;28;20195;-66
2022/08/23 04:51:16;;;;;;;0.40;0.40;;;17.50;99.90;;;;;;5114111;28;20238;-68
2022/08/23 04:54:06;;;;;;;0.60;0.60;;;17.30;99.90;;;;;;5113842;28;20195;-65
2022/08/23 04:56:55;;;;;;;0.40;0.40;;;17.30;99.90;;;;;;5113845;28;20344;-67
2022/08/23 04:59:43;;;;;;;0.40;0.40;;;17.30;99.90;;;;;;5113964;28;20244;-68
2022/08/23 05:02:31;;;;;;;0.60;0.60;;;17.40;99.90;;;;;;5114011;28;20272;-68
2022/08/23 05:05:20;;;;;;;0.40;0.40;;;17.30;99.90;;;;;;5114225;28;20199;-70
2022/08/23 05:08:08;;;;;;;0.60;0.60;;;17.30;99.90;;;;;;5114504;28;20199;-64
2022/08/23 05:11:00;;;;;;;0.43;0.43;;;17.40;99.90;;;;;;5113007;28;20230;-66
2022/08/23 05:13:48;;;;;;;0.40;0.40;;;17.40;99.90;;;;;;5114180;28;20192;-67
2022/08/23 05:16:36;;;;;;;0.40;0.40;;;17.50;99.90;;;;;;5113342;28;20226;-68
2022/08/23 05:19:24;;;;;;;0.50;0.50;;;17.50;99.90;;;;;;5113445;28;20379;-66
2022/08/23 05:22:14;;;;;;;0.40;0.40;;;17.50;99.90;;;;;;5113075;28;20359;-67
2022/08/23 05:25:02;;;;;;;0.40;0.40;;;17.60;99.90;;;;;;5112769;28;20679;-70
2022/08/23 05:27:50;;;;;;;0.63;0.63;;;17.70;99.90;;;;;;5112293;28;20256;-68
2022/08/23 05:30:38;;;;;;;0.50;0.50;;;17.90;99.90;;;;;;5113216;28;20223;-67
2022/08/23 05:33:27;;;;;;;0.40;0.40;;;17.80;99.90;;;;;;5113608;28;20195;-68
2022/08/23 05:36:17;;;;;;;0.40;0.40;;;18.00;99.90;;;;;;5112841;28;20303;-66
2022/08/23 05:39:07;;;;;;;0.50;0.50;;;18.00;99.90;;;;;;5113223;28;20733;-66
2022/08/23 05:41:56;;;;;;;0.40;0.40;;;18.20;99.90;;;;;;5112323;28;20505;-64
2022/08/23 05:44:44;;;;;;;0.40;0.40;;;18.10;99.90;;;;;;5113402;28;20199;-67
2022/08/23 05:47:32;;;;;;;0.40;0.40;;;18.30;99.90;;;;;;5113382;28;20213;-68
2022/08/23 05:50:21;;;;;;;0.50;0.50;;;18.40;99.90;;;;;;5113209;28;20581;-66
2022/08/23 05:53:10;;;;;;;0.40;0.40;;;18.40;99.90;;;;;;5113591;28;20187;-65
2022/08/23 05:56:09;;;;;;;0.40;0.40;;;18.50;99.90;;;;;;5112689;28;20230;-68
2022/08/23 05:58:59;;;;;;;0.40;0.40;;;18.60;99.90;;;;;;5111160;28;20203;-67
2022/08/23 06:01:47;;;;;;;0.40;0.40;;;18.50;99.90;;;;;;5106206;28;20433;-66
2022/08/23 06:04:37;;;;;;;0.40;0.40;;;18.50;99.90;;;;;;5111403;28;20200;-66
2022/08/23 06:07:25;;;;;;;0.50;0.50;;;18.60;99.90;;;;;;5112188;28;20199;-66
2022/08/23 06:10:13;;;;;;;0.40;0.40;;;18.70;99.90;;;;;;5092065;28;20238;-66
2022/08/23 06:13:04;;;;;;;0.45;0.45;;;18.80;99.90;;;;;;5089936;28;20269;-67
2022/08/23 06:15:52;;;;;;;0.40;0.40;;;18.90;99.90;;;;;;5090625;28;20212;-65
2022/08/23 06:18:40;;;;;;;0.40;0.40;;;19.00;99.90;;;;;;5091370;28;20204;-66
2022/08/23 06:21:30;;;;;;;0.40;0.40;;;19.20;99.90;;;;;;5105921;28;20273;-67
2022/08/23 06:24:18;;;;;;;0.40;0.40;;;19.40;99.90;;;;;;5112787;28;20207;-69
2022/08/23 06:27:07;;;;;;;0.40;0.40;;;19.60;99.90;;;;;;5111656;28;20218;-68
2022/08/23 06:29:56;;;;;;;0.40;0.40;;;19.70;99.90;;;;;;5112314;28;20199;-65
2022/08/23 06:32:45;;;;;;;0.40;0.40;;;19.80;99.90;;;;;;5111356;28;20204;-68
2022/08/23 06:35:33;;;;;;;0.40;0.40;;;20.00;99.90;;;;;;5111955;28;20198;-66
2022/08/23 06:38:26;;;;;;;0.50;0.50;;;19.90;99.90;;;;;;5111800;28;20264;-66
2022/08/23 06:41:14;;;;;;;0.40;0.40;;;19.90;99.90;;;;;;5112299;28;20215;-65
2022/08/23 06:44:03;;;;;;;0.40;0.40;;;20.00;99.90;;;;;;5111174;28;20341;-66
2022/08/23 06:46:55;;;;;;;0.40;0.40;;;20.10;99.90;;;;;;5111449;28;20676;-67
2022/08/23 06:49:43;;;;;;;0.40;0.40;;;20.20;99.90;;;;;;5110943;28;20804;-67
2022/08/23 06:52:47;;;;;;;0.50;0.50;;;20.20;99.90;;;;;;5110262;28;20198;-68
2022/08/23 06:55:35;;;;;;;0.40;0.40;;;20.40;99.90;;;;;;5112026;28;20670;-65
2022/08/23 06:58:23;;;;;;;0.40;0.40;;;20.50;99.90;;;;;;5093336;28;20203;-66
2022/08/23 07:01:15;;;;;;;0.40;0.40;;;20.50;99.90;;;;;;5090899;28;20224;-67
2022/08/23 07:04:27;;;;;;;0.40;0.40;;;20.50;99.90;;;;;;5091331;28;20272;-66
2022/08/23 07:07:15;;;;;;;0.40;0.40;;;20.60;99.90;;;;;;5091268;28;20741;-67
2022/08/23 07:10:04;;;;;;;0.40;0.40;;;20.60;99.90;;;;;;5094272;28;20203;-65
2022/08/23 07:12:53;;;;;;;1.40;1.30;;;20.70;99.90;;;;;;5095398;28;20196;-67
2022/08/23 07:15:41;;;;;;;0.40;0.40;;;20.70;99.90;;;;;;5095305;28;20253;-65
2022/08/23 07:18:29;;;;;;;0.50;0.50;;;20.80;99.90;;;;;;5095363;28;20200;-66
2022/08/23 07:21:18;;;;;;;0.40;0.40;;;20.80;99.90;;;;;;5094947;28;20223;-66
2022/08/23 07:24:08;;;;;;;0.50;0.50;;;20.90;99.90;;;;;;5095488;28;20223;-66
2022/08/23 07:26:56;;;;;;;0.40;0.40;;;20.90;99.90;;;;;;5096643;28;20200;-64
2022/08/23 07:29:44;;;;;;;0.47;0.47;;;20.90;99.90;;;;;;5105773;28;20280;-64
2022/08/23 07:32:32;;;;;;;0.52;0.52;;;21.00;99.90;;;;;;5104542;28;20220;-66
2022/08/23 07:35:21;;;;;;;0.40;0.40;;;20.80;99.90;;;;;;5105956;28;20568;-66
2022/08/23 07:38:10;;;;;;;0.40;0.40;;;20.90;99.90;;;;;;5104855;28;20248;-63
2022/08/23 07:40:59;;;;;;;0.40;0.40;;;20.90;99.90;;;;;;5103591;28;20295;-67
2022/08/23 07:43:47;;;;;;;0.40;0.40;;;21.00;99.90;;;;;;5105005;28;20691;-63
2022/08/23 07:46:36;;;;;;;0.50;0.50;;;20.90;99.90;;;;;;5103898;28;20211;-67
2022/08/23 07:49:24;;;;;;;0.47;0.47;;;20.80;99.90;;;;;;5113456;28;20206;-66
2022/08/23 07:52:16;;;;;;;0.40;0.40;;;20.70;99.90;;;;;;5115128;28;20280;-65
2022/08/23 07:55:06;;;;;;;0.40;0.40;;;20.60;99.90;;;;;;5105972;28;20202;-64
2022/08/23 07:57:55;;;;;;;0.40;0.40;;;20.50;99.90;;;;;;5105499;28;20203;-65
2022/08/23 08:00:43;;;;;;;0.40;0.40;;;20.50;99.90;;;;;;5103979;28;20220;-65
2022/08/23 08:03:32;;;;;;;0.40;0.40;;;20.40;99.90;;;;;;5101877;28;20220;-65
2022/08/23 08:06:22;;;;;;;0.50;0.50;;;20.40;99.90;;;;;;5092727;28;20208;-66
2022/08/23 08:09:11;;;;;;;0.50;0.50;;;20.30;99.90;;;;;;5092754;28;20659;-64
2022/08/23 08:12:01;;;;;;;0.47;0.47;;;20.40;99.90;;;;;;5093495;28;20223;-64
2022/08/23 08:14:49;;;;;;;0.40;0.40;;;20.40;99.90;;;;;;5093721;28;20196;-64
2022/08/23 08:17:37;;;;;;;0.70;0.70;;;20.50;99.90;;;;;;5093124;28;20561;-65
2022/08/23 08:20:27;;;;;;;0.73;0.73;;;20.50;99.90;;;;;;5093129;28;20708;-64
2022/08/23 08:23:16;;;;;;;0.50;0.50;;;20.40;99.90;;;;;;5093242;28;20357;-64
2022/08/23 08:26:07;;;;;;;0.40;0.40;;;20.40;99.90;;;;;;5093728;28;20683;-65
2022/08/23 08:28:56;;;;;;;0.40;0.40;;;20.30;99.90;;;;;;5093543;28;20203;-65
2022/08/23 08:31:46;;;;;;;1.52;1.13;;;20.40;99.90;;;;;;5093477;28;20704;-64
2022/08/23 08:34:40;;;;;;;0.40;0.40;;;20.40;99.90;;;;;;5108218;28;20980;-66
2022/08/23 08:37:29;;;;;;;0.95;0.95;;;20.50;99.90;;;;;;5099299;28;20557;-66
2022/08/23 08:40:22;;;;;;;0.40;0.40;;;21.00;99.90;;;;;;5093552;28;20207;-65
2022/08/23 08:43:26;;;;;;;0.40;0.40;;;21.00;99.90;;;;;;5094323;28;20222;-66
2022/08/23 08:46:24;;;;;;;0.40;0.40;;;20.90;99.90;;;;;;5093633;28;20227;-66
2022/08/23 08:49:18;;;;;;;0.70;0.70;;;21.10;99.90;;;;;;5093548;28;20203;-65
2022/08/23 08:52:15;;;;;;;0.50;0.50;;;21.10;99.90;;;;;;5093986;28;20258;-66
2022/08/23 08:55:08;;;;;;;0.40;0.40;;;21.20;99.90;;;;;;5093738;28;20625;-65
2022/08/23 08:57:56;;;;;;;0.50;0.50;;;21.30;99.90;;;;;;5108207;28;20200;-66
2022/08/23 09:00:45;;;;;;;0.40;0.40;;;21.40;99.90;;;;;;5111596;28;20211;-68
2022/08/23 09:03:35;;;;;;;0.60;0.60;;;21.50;99.90;;;;;;5113613;28;20682;-67
2022/08/23 09:06:32;;;;;;;0.40;0.40;;;21.60;99.90;;;;;;5113661;28;20215;-66
2022/08/23 09:09:37;;;;;;;0.50;0.50;;;21.60;99.90;;;;;;5112924;28;20256;-65
2022/08/23 09:12:36;;;;;;;0.40;0.40;;;21.70;99.90;;;;;;5113009;28;20270;-66
2022/08/23 09:15:32;;;;;;;0.40;0.40;;;21.80;99.90;;;;;;5113530;28;20232;-64
2022/08/23 09:18:22;;;;;;;0.50;0.50;;;22.00;99.90;;;;;;5113574;28;20253;-67
2022/08/23 09:21:14;;;;;;;0.40;0.40;;;22.20;99.90;;;;;;5112716;28;20220;-65
2022/08/23 09:24:03;;;;;;;0.75;0.75;;;22.40;99.90;;;;;;5112820;28;20211;-64
2022/08/23 09:26:52;;;;;;;0.40;0.40;;;22.50;99.90;;;;;;5113260;28;20200;-65
2022/08/23 09:29:53;;;;;;;0.40;0.40;;;22.60;99.90;;;;;;5112517;28;20203;-64
2022/08/23 09:32:43;;;;;;;0.40;0.40;;;22.50;99.90;;;;;;5113989;28;20287;-66
2022/08/23 09:35:31;;;;;;;1.13;0.82;;;22.50;99.90;;;;;;5113094;28;20195;-65
2022/08/23 09:38:21;;;;;;;0.40;0.40;;;22.50;99.90;;;;;;5113492;28;20199;-64
2022/08/23 09:41:19;;;;;;;0.40;0.40;;;22.60;99.90;;;;;;5113413;28;20227;-66
2022/08/23 09:44:12;;;;;;;0.40;0.40;;;22.70;99.90;;;;;;5114063;28;20218;-66
2022/08/23 09:47:10;;;;;;;0.40;0.40;;;22.70;99.90;;;;;;5113689;28;20552;-65
2022/08/23 09:50:08;;;;;;;0.40;0.40;;;22.60;99.90;;;;;;5113265;28;20195;-64
2022/08/23 09:53:00;;;;;;;0.40;0.40;;;22.60;99.90;;;;;;5101443;28;20192;-64
2022/08/23 09:55:56;;;;;;;0.40;0.40;;;22.70;99.90;;;;;;5092592;28;20680;-64
2022/08/23 09:58:49;;;;;;;0.47;0.47;;;22.60;99.90;;;;;;5093055;28;20196;-64
2022/08/23 10:01:37;;;;;;;0.40;0.40;;;22.70;99.90;;;;;;5092977;28;20227;-64
2022/08/23 10:04:38;;;;;;;0.40;0.40;;;22.90;99.90;;;;;;5092400;28;20222;-65
2022/08/23 10:07:33;;;;;;;0.40;0.40;;;22.90;99.90;;;;;;5092558;28;20688;-66
2022/08/23 10:10:27;;;;;;;0.40;0.40;;;23.10;99.90;;;;;;5092411;28;20200;-66
2022/08/23 10:13:16;;;;;;;0.40;0.40;;;23.20;99.90;;;;;;5092002;28;20601;-66
2022/08/23 10:16:15;;;;;;;0.73;0.73;;;23.40;99.90;;;;;;5092503;28;20664;-63
2022/08/23 10:19:12;;;;;;;0.40;0.40;;;23.60;99.90;;;;;;5092418;28;20208;-65
2022/08/23 10:22:07;;;;;;;0.85;0.85;;;23.70;99.90;;;;;;5092147;28;20220;-66
2022/08/23 10:25:04;;;;;;;0.40;0.40;;;23.80;99.90;;;;;;5093386;28;20222;-66
2022/08/23 10:31:14;;;;;;;0.40;0.40;;;24.20;99.90;;;;;;5091826;28;20772;-64
2022/08/23 10:34:16;;;;;;;0.40;0.40;;;24.60;99.90;;;;;;5091959;28;20254;-64
2022/08/23 10:37:16;;;;;;;0.40;0.40;;;24.80;99.90;;;;;;5092222;28;20607;-63
2022/08/23 10:40:13;;;;;;;0.40;0.40;;;24.90;99.90;;;;;;5090693;28;20680;-64
2022/08/23 10:43:14;;;;;;;0.40;0.40;;;25.00;99.90;;;;;;5092757;28;20200;-66
2022/08/23 10:46:02;;;;;;;0.40;0.40;;;25.20;99.90;;;;;;5091563;28;20597;-64
2022/08/23 10:48:55;;;;;;;0.98;0.98;;;25.30;99.90;;;;;;5091982;28;20207;-66
2022/08/23 10:51:45;;;;;;;0.40;0.40;;;25.20;99.90;;;;;;5092672;28;20676;-64
2022/08/23 10:54:47;;;;;;;0.40;0.40;;;25.10;99.90;;;;;;5092884;28;20237;-64
2022/08/23 10:57:39;;;;;;;0.40;0.40;;;25.00;99.90;;;;;;5100003;28;20196;-66
2022/08/23 11:00:29;;;;;;;0.40;0.40;;;24.80;99.90;;;;;;5102506;28;20246;-67
2022/08/23 11:03:25;;;;;;;0.40;0.40;;;24.70;99.90;;;;;;5098017;28;20207;-66
2022/08/23 11:06:52;;;;;;;0.40;0.40;;;24.80;99.90;;;;;;5101459;28;20200;-65
2022/08/23 11:09:56;;;;;;;0.40;0.40;;;24.60;99.90;;;;;;5110567;28;20206;-65
2022/08/23 11:12:55;;;;;;;0.40;0.40;;;24.70;99.90;;;;;;5092894;28;20195;-67
2022/08/23 11:15:46;;;;;;;0.40;0.40;;;24.80;99.90;;;;;;5091542;28;20582;-65
2022/08/23 11:18:40;;;;;;;0.40;0.40;;;24.90;99.90;;;;;;5091261;28;20206;-64
2022/08/23 11:21:49;;;;;;;0.40;0.40;;;25.10;99.90;;;;;;5091883;28;20277;-64
2022/08/23 11:24:57;;;;;;;0.40;0.40;;;25.20;99.90;;;;;;5091859;28;20223;-64
2022/08/23 11:27:45;;;;;;;0.40;0.40;;;25.30;99.90;;;;;;5092125;28;20195;-64
2022/08/23 11:30:49;;;;;;;0.40;0.40;;;25.40;99.90;;;;;;5090056;28;20602;-66
2022/08/23 11:33:45;;;;;;;0.40;0.40;;;25.30;99.90;;;;;;5090942;28;20195;-64
2022/08/23 11:36:35;;;;;;;0.40;0.40;;;25.40;99.90;;;;;;5090971;28;20203;-65
2022/08/23 11:39:24;;;;;;;0.40;0.40;;;25.50;99.90;;;;;;5091225;28;20203;-64
2022/08/23 11:42:19;;;;;;;0.40;0.40;;;25.60;99.90;;;;;;5090744;28;20220;-64
2022/08/23 11:45:21;;;;;;;0.40;0.40;;;25.70;99.90;;;;;;5090902;28;20212;-64
2022/08/23 11:48:17;;;;;;;0.40;0.40;;;25.90;99.90;;;;;;5090156;28;20253;-64
2022/08/23 11:51:18;;;;;;;0.40;0.40;;;25.90;99.90;;;;;;5090131;28;20227;-66
2022/08/23 11:54:28;;;;;;;0.40;0.40;;;25.90;99.90;;;;;;5091119;28;20200;-66
2022/08/23 11:57:34;;;;;;;0.40;0.40;;;26.00;99.90;;;;;;5103576;28;20196;-63
2022/08/23 12:00:26;;;;;;;0.40;0.40;;;25.90;99.90;;;;;;5114436;28;20252;-65
2022/08/23 12:03:24;;;;;;;0.40;0.40;;;25.90;99.90;;;;;;5115060;28;20560;-64
2022/08/23 12:06:39;;;;;;;0.50;0.50;;;25.80;99.90;;;;;;5112377;28;20227;-66
2022/08/23 12:09:53;;;;;;;0.40;0.40;;;25.80;99.90;;;;;;5114656;28;20222;-64
2022/08/23 12:12:43;;;;;;;0.40;0.40;;;25.80;99.90;;;;;;5114769;28;20256;-64
2022/08/23 12:16:04;;;;;;;0.40;0.40;;;25.90;99.90;;;;;;5112380;28;20200;-66
2022/08/23 12:18:56;;;;;;;0.40;0.40;;;26.10;99.90;;;;;;5106093;28;20253;-67
2022/08/23 12:21:48;;;;;;;0.40;0.40;;;26.40;99.90;;;;;;5103555;28;20216;-67
2022/08/23 12:24:42;;;;;;;0.40;0.40;;;26.40;99.90;;;;;;5104385;28;20206;-66
2022/08/23 12:27:35;;;;;;;0.40;0.40;;;26.40;99.90;;;;;;5104722;28;20282;-67
2022/08/23 12:30:32;;;;;;;0.40;0.40;;;26.40;99.90;;;;;;5103213;28;20197;-66
2022/08/23 12:33:29;;;;;;;0.40;0.40;;;26.50;99.90;;;;;;5101656;28;20219;-67
2022/08/23 12:36:23;;;;;;;0.40;0.40;;;26.70;99.90;;;;;;5098225;28;20575;-66
2022/08/23 12:39:23;;;;;;;0.40;0.40;;;26.80;99.90;;;;;;5100009;28;20192;-68
2022/08/23 12:42:14;;;;;;;0.40;0.40;;;27.10;99.90;;;;;;5103809;28;20216;-67
2022/08/23 12:45:07;;;;;;;0.40;0.40;;;27.40;99.90;;;;;;5102312;28;20216;-66
2022/08/23 12:47:58;;;;;;;0.40;0.40;;;27.50;99.90;;;;;;5103689;28;20697;-65
2022/08/23 12:50:54;;;;;;;0.40;0.40;;;28.00;99.90;;;;;;5099803;28;20313;-64
2022/08/23 12:53:44;;;;;;;0.40;0.40;;;28.70;99.80;;;;;;5093673;28;20204;-64
2022/08/23 12:56:33;;;;;;;0.40;0.40;;;29.40;99.30;;;;;;5096668;28;20191;-63
2022/08/23 12:59:34;;;;;;;0.50;0.50;;;30.60;97.60;;;;;;5115526;28;20210;-64
2022/08/23 13:02:27;;;;;;;0.40;0.40;;;31.70;95.40;;;;;;5114174;28;20223;-63
2022/08/23 13:05:26;;;;;;;0.63;0.63;;;33.20;92.60;;;;;;5112893;28;20226;-64
2022/08/23 13:08:19;;;;;;;0.40;0.40;;;35.10;87.10;;;;;;5114014;28;20204;-63
2022/08/23 13:11:25;;;;;;;0.40;0.40;;;36.50;79.50;;;;;;5113551;28;20219;-64
2022/08/23 13:14:23;;;;;;;0.55;0.55;;;37.40;71.90;;;;;;5114074;28;20200;-64
2022/08/23 13:17:22;;;;;;;0.40;0.40;;;38.90;67.50;;;;;;5109847;28;20195;-64
2022/08/23 13:20:17;;;;;;;0.40;0.40;;;39.50;62.90;;;;;;5103206;28;20671;-64
2022/08/23 13:23:14;;;;;;;0.43;0.43;;;39.70;60.60;;;;;;5101823;28;20188;-64
2022/08/23 13:26:24;;;;;;;0.40;0.40;;;39.70;58.90;;;;;;5095451;28;20215;-64
2022/08/23 13:29:22;;;;;;;0.40;0.40;;;39.60;57.90;;;;;;5101525;28;20199;-64
2022/08/23 13:32:28;;;;;;;0.75;0.75;;;40.20;56.70;;;;;;5100875;28;20277;-65
2022/08/23 13:35:34;;;;;;;0.40;0.40;;;40.10;55.50;;;;;;5101592;28;20191;-65
2022/08/23 13:38:29;;;;;;;0.40;0.40;;;40.70;54.70;;;;;;5102062;28;20196;-65
2022/08/23 13:41:31;;;;;;;0.40;0.40;;;41.70;53.30;;;;;;5101509;28;20220;-65
2022/08/23 13:44:26;;;;;;;0.50;0.50;;;42.40;51.70;;;;;;5102181;28;20278;-66
2022/08/23 13:47:24;;;;;;;1.73;0.47;;;43.10;50.40;;;;;;5100048;28;20216;-65
2022/08/23 13:50:26;;;;;;;0.40;0.40;;;44.00;48.30;;;;;;5101520;28;20280;-66
2022/08/23 13:53:15;;;;;;;0.50;0.50;;;43.70;47.40;;;;;;5102791;28;20195;-65
2022/08/23 13:56:05;;;;;;;0.40;0.40;;;43.50;47.60;;;;;;5109727;28;20210;-66
2022/08/23 13:58:56;;;;;;;0.45;0.45;;;44.40;46.60;;;;;;5091437;28;20220;-66
2022/08/23 14:01:44;;;;;;;1.20;1.13;;;44.70;45.60;;;;;;5091996;28;20220;-65
2022/08/23 14:04:32;;;;;;;0.50;0.50;;;42.40;46.40;;;;;;5091949;28;20204;-65
2022/08/23 14:07:21;;;;;;;0.40;0.40;;;39.70;49.00;;;;;;5100334;28;20257;-65
2022/08/23 14:10:09;;;;;;;0.40;0.40;;;37.30;52.20;;;;;;5101800;28;20261;-64
2022/08/23 14:13:00;;;;;;;0.40;0.40;;;35.60;54.40;;;;;;5093864;28;20204;-64
2022/08/23 14:15:49;;;;;;;0.40;0.40;;;34.40;56.90;;;;;;5102589;28;20183;-65
2022/08/23 14:18:57;;;;;;;0.40;0.40;;;33.50;58.50;;;;;;5100892;28;20282;-64
2022/08/23 14:22:06;;;;;;;0.63;0.63;;;33.80;58.60;;;;;;5102618;28;20256;-65
2022/08/23 14:24:54;;;;;;;0.40;0.40;;;33.90;58.50;;;;;;5099318;28;20569;-65
2022/08/23 14:27:45;;;;;;;0.40;0.40;;;34.50;58.30;;;;;;5110290;28;20355;-65
2022/08/23 14:30:35;;;;;;;0.40;0.40;;;36.50;55.00;;;;;;5095415;28;20231;-65
2022/08/23 14:33:24;;;;;;;0.40;0.40;;;36.70;54.90;;;;;;5091816;28;20196;-65
2022/08/23 14:36:12;;;;;;;0.40;0.40;;;37.70;53.50;;;;;;5091889;28;20585;-65
2022/08/23 14:39:00;;;;;;;0.40;0.40;;;38.10;52.60;;;;;;5091667;28;20207;-65
2022/08/23 14:41:49;;;;;;;0.40;0.40;;;37.60;52.60;;;;;;5091626;28;20727;-65
2022/08/23 14:44:39;;;;;;;0.40;0.40;;;37.10;53.70;;;;;;5091716;28;20208;-65
2022/08/23 14:47:28;;;;;;;0.40;0.40;;;36.70;54.60;;;;;;5092207;28;20223;-65
2022/08/23 14:50:16;;;;;;;0.50;0.50;;;33.90;58.20;;;;;;5091078;28;20284;-65
2022/08/23 14:53:06;;;;;;;0.40;0.40;;;33.80;58.90;;;;;;5091429;28;20235;-65
2022/08/23 14:55:54;;;;;;;0.40;0.40;;;32.50;61.40;;;;;;5090214;28;20618;-65
2022/08/23 14:59:02;;;;;;;0.40;0.40;;;31.70;63.30;;;;;;5091707;28;20334;-65
2022/08/23 15:01:53;;;;;;;0.40;0.40;;;31.60;63.30;;;;;;5090422;28;20212;-66
2022/08/23 15:04:42;;;;;;;0.40;0.40;;;31.90;63.10;;;;;;5090796;28;20196;-65
2022/08/23 15:07:30;;;;;;;0.50;0.50;;;32.70;61.90;;;;;;5090444;28;20709;-65